Time;durP1;ratioP1;P1;durP2;ratioP2;P2;SDS_P1;SDS_P2;PMS_P1;PMS_P2;Temp;Humidity;BMP_temperature;BMP_pressure;BME280_temperature;BME280_humidity;BME280_pressure;Samples;Min_cycle;Max_cycle;Signal;HPM_P1;HPM_P2
2023/11/22 00:00:36;;;;;;;10.73;7.33;;;5.80;99.90;;;;;;5073022;28;20182;-70
2023/11/22 00:03:02;;;;;;;12.10;7.80;;;5.90;99.90;;;;;;5073095;28;20400;-70
2023/11/22 00:05:27;;;;;;;15.57;9.73;;;6.00;99.90;;;;;;5072835;28;20510;-70
2023/11/22 00:07:53;;;;;;;10.80;7.77;;;6.00;99.90;;;;;;5072994;28;20170;-70
2023/11/22 00:10:18;;;;;;;11.00;7.93;;;6.10;99.90;;;;;;5072640;28;20189;-70
2023/11/22 00:12:44;;;;;;;11.60;8.07;;;6.20;99.90;;;;;;5072626;28;20748;-70
2023/11/22 00:15:11;;;;;;;12.07;8.80;;;6.30;99.90;;;;;;5072731;28;20158;-70
2023/11/22 00:17:37;;;;;;;14.50;8.97;;;6.40;99.90;;;;;;5072846;28;20204;-70
2023/11/22 00:20:05;;;;;;;12.20;7.63;;;6.50;99.90;;;;;;5072244;28;21048;-70
2023/11/22 00:22:34;;;;;;;14.60;8.77;;;6.60;99.90;;;;;;5072214;28;20163;-70
2023/11/22 00:25:01;;;;;;;12.13;6.80;;;6.70;99.90;;;;;;5072597;28;20405;-70
2023/11/22 00:27:27;;;;;;;12.90;8.77;;;6.70;99.90;;;;;;5072724;28;20397;-69
2023/11/22 00:29:53;;;;;;;12.30;7.90;;;6.80;99.90;;;;;;5072506;28;20465;-70
2023/11/22 00:32:19;;;;;;;14.30;9.53;;;6.80;99.90;;;;;;5071821;28;20979;-70
2023/11/22 00:34:44;;;;;;;12.90;8.87;;;6.80;99.90;;;;;;5070330;28;20158;-70
2023/11/22 00:37:10;;;;;;;11.77;9.17;;;6.90;99.90;;;;;;5067123;28;20175;-70
2023/11/22 00:39:36;;;;;;;10.07;8.13;;;6.90;99.90;;;;;;5071979;28;20213;-70
2023/11/22 00:42:03;;;;;;;12.97;8.27;;;6.90;99.90;;;;;;5072423;28;20412;-70
2023/11/22 00:44:29;;;;;;;13.93;8.37;;;6.90;99.90;;;;;;5072424;28;20454;-70
2023/11/22 00:46:57;;;;;;;11.90;8.10;;;6.90;99.90;;;;;;5072138;28;20491;-70
2023/11/22 00:49:22;;;;;;;13.80;8.17;;;7.00;99.90;;;;;;5072240;28;20436;-70
2023/11/22 00:51:48;;;;;;;13.80;9.50;;;7.00;99.90;;;;;;5071868;28;20467;-70
2023/11/22 00:54:15;;;;;;;11.00;8.33;;;7.00;99.90;;;;;;5072296;28;20177;-70
2023/11/22 00:56:40;;;;;;;14.47;7.90;;;7.00;99.90;;;;;;5071932;28;20511;-70
2023/11/22 00:59:06;;;;;;;9.20;7.53;;;7.00;99.90;;;;;;5072084;28;20420;-70
2023/11/22 01:01:31;;;;;;;11.13;7.60;;;7.00;99.90;;;;;;5071925;28;20533;-71
2023/11/22 01:03:57;;;;;;;12.93;8.67;;;7.00;99.90;;;;;;5072084;28;20701;-70
2023/11/22 01:06:23;;;;;;;11.17;8.30;;;7.10;99.90;;;;;;5071923;28;20239;-70
2023/11/22 01:08:49;;;;;;;11.73;8.47;;;7.00;99.90;;;;;;5071994;28;20197;-70
2023/11/22 01:11:14;;;;;;;13.77;9.70;;;7.00;99.90;;;;;;5071891;28;20518;-70
2023/11/22 01:13:42;;;;;;;10.90;8.27;;;7.00;99.90;;;;;;5054020;28;20170;-70
2023/11/22 01:16:08;;;;;;;9.87;8.20;;;7.00;99.90;;;;;;5071693;28;20182;-69
2023/11/22 01:18:34;;;;;;;12.20;8.80;;;7.00;99.90;;;;;;5071803;28;20436;-70
2023/11/22 01:21:00;;;;;;;13.57;8.93;;;7.00;99.90;;;;;;5071790;28;20245;-70
2023/11/22 01:23:27;;;;;;;11.73;9.00;;;7.00;99.90;;;;;;5071915;28;20428;-70
2023/11/22 01:25:53;;;;;;;13.00;7.13;;;7.00;99.90;;;;;;5071543;28;20260;-70
2023/11/22 01:28:19;;;;;;;14.67;8.50;;;7.00;99.90;;;;;;5071636;28;20495;-70
2023/11/22 01:30:48;;;;;;;11.43;6.93;;;7.00;99.90;;;;;;5071513;28;20220;-70
2023/11/22 01:33:14;;;;;;;16.03;9.13;;;7.10;99.90;;;;;;5071544;28;20253;-70
2023/11/22 01:35:40;;;;;;;12.50;8.80;;;7.00;99.90;;;;;;5071725;28;20483;-69
2023/11/22 01:38:05;;;;;;;9.40;7.70;;;7.10;99.90;;;;;;5053600;28;20694;-70
2023/11/22 01:40:31;;;;;;;14.23;9.50;;;7.00;99.90;;;;;;5071360;28;20193;-70
2023/11/22 01:43:02;;;;;;;13.77;8.67;;;7.00;99.90;;;;;;5071691;28;20166;-70
2023/11/22 01:45:28;;;;;;;10.77;7.73;;;7.00;99.90;;;;;;5071645;28;20166;-70
2023/11/22 01:47:54;;;;;;;12.57;7.87;;;7.00;99.90;;;;;;5071737;28;20423;-70
2023/11/22 01:50:20;;;;;;;17.57;9.90;;;7.00;99.90;;;;;;5073042;28;20542;-70
2023/11/22 01:52:46;;;;;;;11.47;7.73;;;7.00;99.90;;;;;;5075459;28;20452;-70
2023/11/22 01:55:13;;;;;;;13.03;8.00;;;7.00;99.90;;;;;;5075581;28;20249;-70
2023/11/22 01:57:39;;;;;;;11.20;8.20;;;7.00;99.90;;;;;;5075646;28;20488;-70
2023/11/22 02:00:07;;;;;;;12.20;8.57;;;7.00;99.90;;;;;;5075379;28;20837;-70
2023/11/22 02:02:34;;;;;;;14.37;8.47;;;6.90;99.90;;;;;;5075483;28;20162;-70
2023/11/22 02:04:59;;;;;;;12.33;8.20;;;6.90;99.90;;;;;;5075249;28;20779;-70
2023/11/22 02:07:27;;;;;;;14.00;9.33;;;6.90;99.90;;;;;;5075470;28;20404;-70
2023/11/22 02:09:53;;;;;;;13.93;7.63;;;6.90;99.90;;;;;;5075172;28;20264;-70
2023/11/22 02:12:19;;;;;;;10.63;7.90;;;6.80;99.90;;;;;;5075174;28;20444;-70
2023/11/22 02:14:45;;;;;;;10.60;8.07;;;6.80;99.90;;;;;;5075229;28;20163;-70
2023/11/22 02:17:11;;;;;;;15.30;8.40;;;6.80;99.90;;;;;;5075034;28;20765;-70
2023/11/22 02:19:36;;;;;;;13.17;7.83;;;6.80;99.90;;;;;;5057136;28;20186;-70
2023/11/22 02:22:02;;;;;;;10.13;7.10;;;6.80;99.90;;;;;;5075126;28;20485;-70
2023/11/22 02:24:28;;;;;;;11.83;7.47;;;6.70;99.90;;;;;;5057159;28;20171;-70
2023/11/22 02:26:53;;;;;;;11.87;8.07;;;6.70;99.90;;;;;;5074758;28;20539;-70
2023/11/22 02:29:19;;;;;;;10.20;7.10;;;6.70;99.90;;;;;;5074802;28;20615;-70
2023/11/22 02:31:45;;;;;;;9.33;7.17;;;6.70;99.90;;;;;;5074777;28;20557;-70
2023/11/22 02:34:11;;;;;;;12.37;7.03;;;6.70;99.90;;;;;;5074877;28;20415;-70
2023/11/22 02:36:37;;;;;;;11.70;7.30;;;6.60;99.90;;;;;;5074870;28;20739;-70
2023/11/22 02:39:03;;;;;;;15.43;9.70;;;6.60;99.90;;;;;;5074773;28;20190;-70
2023/11/22 02:41:32;;;;;;;12.87;8.40;;;6.60;99.90;;;;;;5074605;28;20193;-70
2023/11/22 02:43:57;;;;;;;10.53;7.07;;;6.60;99.90;;;;;;5074532;28;20423;-70
2023/11/22 02:46:23;;;;;;;11.50;8.17;;;6.50;99.90;;;;;;5074329;28;20412;-70
2023/11/22 02:48:49;;;;;;;7.87;6.47;;;6.40;99.90;;;;;;5074416;28;20194;-70
2023/11/22 02:51:15;;;;;;;18.43;7.60;;;6.40;99.90;;;;;;5074381;28;20564;-70
2023/11/22 02:53:43;;;;;;;11.20;6.60;;;6.30;99.90;;;;;;5074394;28;20185;-70
2023/11/22 02:56:09;;;;;;;12.60;7.03;;;6.20;99.90;;;;;;5074293;28;20436;-70
2023/11/22 02:58:35;;;;;;;10.40;7.63;;;6.20;99.90;;;;;;5074402;28;20478;-70
2023/11/22 03:01:01;;;;;;;11.07;7.60;;;6.10;99.90;;;;;;5074176;28;20534;-70
2023/11/22 03:03:27;;;;;;;10.27;7.30;;;6.10;99.90;;;;;;5074343;28;20223;-70
2023/11/22 03:05:52;;;;;;;10.30;7.03;;;6.00;99.90;;;;;;5073801;28;20454;-69
2023/11/22 03:08:18;;;;;;;9.07;7.30;;;6.10;99.90;;;;;;5074246;28;20475;-70
2023/11/22 03:10:43;;;;;;;9.87;6.87;;;6.00;99.90;;;;;;5073905;28;20186;-70
2023/11/22 03:13:09;;;;;;;9.10;6.90;;;6.10;99.90;;;;;;5074167;28;20169;-70
2023/11/22 03:15:35;;;;;;;13.73;7.63;;;6.00;99.90;;;;;;5073939;28;20262;-70
2023/11/22 03:18:01;;;;;;;13.40;8.13;;;6.00;99.90;;;;;;5074042;28;20253;-70
2023/11/22 03:20:27;;;;;;;11.67;6.87;;;6.00;99.90;;;;;;5073807;28;20797;-70
2023/11/22 03:22:53;;;;;;;10.90;7.90;;;6.00;99.90;;;;;;5073833;28;20408;-70
2023/11/22 03:25:18;;;;;;;12.77;7.50;;;6.00;99.90;;;;;;5073706;28;20409;-70
2023/11/22 03:27:44;;;;;;;9.37;6.47;;;5.90;99.90;;;;;;5073879;28;20208;-70
2023/11/22 03:30:11;;;;;;;11.53;8.07;;;5.90;99.90;;;;;;5073705;28;20182;-70
2023/11/22 03:32:39;;;;;;;22.73;14.87;;;5.90;99.90;;;;;;5073730;28;20201;-70
2023/11/22 03:35:06;;;;;;;11.77;8.80;;;5.80;99.90;;;;;;5073559;28;20442;-70
2023/11/22 03:37:32;;;;;;;11.00;7.90;;;5.80;99.90;;;;;;5055754;28;20503;-70
2023/11/22 03:39:58;;;;;;;12.90;9.33;;;5.80;99.90;;;;;;5055536;28;20994;-70
2023/11/22 03:42:23;;;;;;;14.40;8.97;;;5.80;99.90;;;;;;5073540;28;20487;-70
2023/11/22 03:44:49;;;;;;;12.10;7.73;;;5.80;99.90;;;;;;5073595;28;20507;-70
2023/11/22 03:47:15;;;;;;;9.17;7.27;;;5.80;99.90;;;;;;5073392;28;20231;-70
2023/11/22 03:49:41;;;;;;;13.40;8.47;;;5.80;99.90;;;;;;5073251;28;20221;-70
2023/11/22 03:52:08;;;;;;;18.77;10.93;;;5.80;99.90;;;;;;5073190;28;20460;-70
2023/11/22 03:54:33;;;;;;;11.70;7.13;;;5.70;99.90;;;;;;5073331;28;20212;-70
2023/11/22 03:56:59;;;;;;;12.20;7.63;;;5.60;99.90;;;;;;5073127;28;20903;-70
2023/11/22 03:59:24;;;;;;;11.33;8.03;;;5.50;99.90;;;;;;5073170;28;20190;-70
2023/11/22 04:01:50;;;;;;;12.37;6.97;;;5.30;99.90;;;;;;5073106;28;20170;-70
2023/11/22 04:04:16;;;;;;;10.43;8.00;;;5.20;99.90;;;;;;5073179;28;20174;-70
2023/11/22 04:06:42;;;;;;;41.30;22.43;;;5.10;99.90;;;;;;5072885;28;20415;-70
2023/11/22 04:09:08;;;;;;;20.10;12.23;;;5.00;99.90;;;;;;5072881;28;20197;-70
2023/11/22 04:11:34;;;;;;;19.67;12.50;;;4.90;99.90;;;;;;5072901;28;20272;-70
2023/11/22 04:14:00;;;;;;;14.13;8.90;;;4.80;99.90;;;;;;5072494;28;20400;-70
2023/11/22 04:16:25;;;;;;;12.33;8.17;;;4.70;99.90;;;;;;5072682;28;20840;-70
2023/11/22 04:18:51;;;;;;;12.50;7.47;;;4.70;99.90;;;;;;5072744;28;20186;-70
2023/11/22 04:21:17;;;;;;;12.50;7.57;;;4.60;99.90;;;;;;5072767;28;20169;-69
2023/11/22 04:23:42;;;;;;;12.70;7.23;;;4.50;99.90;;;;;;5072746;28;20676;-70
2023/11/22 04:26:08;;;;;;;9.30;6.23;;;4.40;99.90;;;;;;5072594;28;20639;-70
2023/11/22 04:28:34;;;;;;;11.63;7.30;;;4.30;99.90;;;;;;5072623;28;20247;-70
2023/11/22 04:31:00;;;;;;;12.40;7.80;;;4.30;99.90;;;;;;5072502;28;20173;-70
2023/11/22 04:33:27;;;;;;;12.60;7.70;;;4.20;99.90;;;;;;5072523;28;20397;-70
2023/11/22 04:35:54;;;;;;;15.10;8.90;;;4.20;99.90;;;;;;5072366;28;20169;-69
2023/11/22 04:38:19;;;;;;;13.40;8.10;;;4.10;99.90;;;;;;5072449;28;20504;-70
2023/11/22 04:40:45;;;;;;;13.07;8.03;;;4.10;99.90;;;;;;5072328;28;20902;-70
2023/11/22 04:43:11;;;;;;;11.43;8.40;;;4.00;99.90;;;;;;5072312;28;20184;-70
2023/11/22 04:45:36;;;;;;;16.20;8.93;;;4.00;99.90;;;;;;5072179;28;20598;-70
2023/11/22 04:48:03;;;;;;;15.60;8.73;;;3.90;99.90;;;;;;5072194;28;20216;-69
2023/11/22 04:50:28;;;;;;;12.97;7.97;;;3.90;99.90;;;;;;5072227;28;20208;-69
2023/11/22 04:52:54;;;;;;;12.10;7.97;;;3.90;99.90;;;;;;5071852;28;20459;-70
2023/11/22 04:55:20;;;;;;;14.70;8.33;;;3.80;99.90;;;;;;5054102;28;20176;-69
2023/11/22 04:57:46;;;;;;;15.23;8.93;;;3.80;99.90;;;;;;5072120;28;20400;-70
2023/11/22 05:00:12;;;;;;;16.60;10.53;;;3.80;99.90;;;;;;5054085;28;20235;-70
2023/11/22 05:02:37;;;;;;;13.10;8.97;;;3.70;99.90;;;;;;5072075;28;21004;-70
2023/11/22 05:05:04;;;;;;;12.63;8.03;;;3.70;99.90;;;;;;5071973;28;20469;-69
2023/11/22 05:07:29;;;;;;;14.60;9.47;;;3.60;99.90;;;;;;5054085;28;20257;-70
2023/11/22 05:09:55;;;;;;;14.60;8.60;;;3.70;99.90;;;;;;5071942;28;20551;-70
2023/11/22 05:12:20;;;;;;;12.70;7.67;;;3.60;99.90;;;;;;5071911;28;20194;-70
2023/11/22 05:14:46;;;;;;;12.07;8.67;;;3.60;99.90;;;;;;5071974;28;20159;-70
2023/11/22 05:17:12;;;;;;;12.13;7.43;;;3.60;99.90;;;;;;5071785;28;20169;-70
2023/11/22 05:19:38;;;;;;;14.10;9.03;;;3.60;99.90;;;;;;5053825;28;20217;-70
2023/11/22 05:22:04;;;;;;;15.70;8.33;;;3.50;99.90;;;;;;5071796;28;20215;-70
2023/11/22 05:24:30;;;;;;;11.93;7.63;;;3.50;99.90;;;;;;5070999;28;20432;-69
2023/11/22 05:26:55;;;;;;;12.17;8.53;;;3.50;99.90;;;;;;5071759;28;20441;-69
2023/11/22 05:29:21;;;;;;;19.77;9.63;;;3.50;99.90;;;;;;5071711;28;20193;-70
2023/11/22 05:31:47;;;;;;;13.70;10.23;;;3.40;99.90;;;;;;5071517;28;20242;-70
2023/11/22 05:34:13;;;;;;;11.83;8.20;;;3.40;99.90;;;;;;5071753;28;20416;-70
2023/11/22 05:36:38;;;;;;;15.83;8.23;;;3.40;99.90;;;;;;5071615;28;20159;-70
2023/11/22 05:39:04;;;;;;;13.23;7.57;;;3.40;99.90;;;;;;5071622;28;20194;-69
2023/11/22 05:41:29;;;;;;;15.70;8.00;;;3.40;99.90;;;;;;5071589;28;20625;-69
2023/11/22 05:43:55;;;;;;;15.93;7.20;;;3.40;99.90;;;;;;5071535;28;20173;-69
2023/11/22 05:46:24;;;;;;;11.03;7.07;;;3.40;99.90;;;;;;5071347;28;20605;-70
2023/11/22 05:48:50;;;;;;;13.07;8.30;;;3.40;99.90;;;;;;5071618;28;20194;-69
2023/11/22 05:51:16;;;;;;;13.63;8.47;;;3.40;99.90;;;;;;5071378;28;20510;-69
2023/11/22 05:53:42;;;;;;;12.63;7.57;;;3.40;99.90;;;;;;5071592;28;20463;-70
2023/11/22 05:56:08;;;;;;;12.50;8.97;;;3.30;99.90;;;;;;5071638;28;20170;-70
2023/11/22 05:58:38;;;;;;;14.90;8.60;;;3.30;99.90;;;;;;5071306;28;20582;-70
2023/11/22 06:01:04;;;;;;;16.50;9.03;;;3.30;99.90;;;;;;5053404;28;20452;-70
2023/11/22 06:03:29;;;;;;;19.53;9.83;;;3.30;99.90;;;;;;5071459;28;20440;-69
2023/11/22 06:05:57;;;;;;;11.63;8.27;;;3.30;99.90;;;;;;5071233;28;20844;-69
2023/11/22 06:08:23;;;;;;;11.87;8.17;;;3.20;99.90;;;;;;5071276;28;20166;-69
2023/11/22 06:10:48;;;;;;;16.10;10.73;;;3.20;99.90;;;;;;5071182;28;20863;-69
2023/11/22 06:13:14;;;;;;;11.27;8.43;;;3.20;99.90;;;;;;5071368;28;20174;-70
2023/11/22 06:15:40;;;;;;;16.83;9.10;;;3.20;99.90;;;;;;5071040;28;20426;-70
2023/11/22 06:18:06;;;;;;;12.63;9.23;;;3.10;99.90;;;;;;5071235;28;20253;-70
2023/11/22 06:20:31;;;;;;;16.10;9.20;;;3.10;99.90;;;;;;5070922;28;20433;-69
2023/11/22 06:22:57;;;;;;;13.30;7.50;;;3.10;99.90;;;;;;5071283;28;20178;-70
2023/11/22 06:25:22;;;;;;;18.20;9.80;;;3.00;99.90;;;;;;5071314;28;20170;-69
2023/11/22 06:27:48;;;;;;;15.57;8.53;;;3.00;99.90;;;;;;5071255;28;20170;-70
2023/11/22 06:30:14;;;;;;;11.53;8.17;;;3.00;99.90;;;;;;5071111;28;20186;-69
2023/11/22 06:32:41;;;;;;;15.67;8.90;;;3.00;99.90;;;;;;5070973;28;20195;-70
2023/11/22 06:35:08;;;;;;;16.43;8.50;;;3.00;99.90;;;;;;5070856;28;20401;-69
2023/11/22 06:37:34;;;;;;;15.03;8.87;;;3.00;99.90;;;;;;5074484;28;20401;-69
2023/11/22 06:40:00;;;;;;;15.40;8.40;;;3.00;99.90;;;;;;5074609;28;20907;-70
2023/11/22 06:42:26;;;;;;;14.30;9.40;;;3.00;99.90;;;;;;5074686;28;20166;-69
2023/11/22 06:44:52;;;;;;;15.37;10.37;;;2.90;99.90;;;;;;5074535;28;20656;-70
2023/11/22 06:47:18;;;;;;;12.77;8.97;;;2.90;99.90;;;;;;5074700;28;20412;-70
2023/11/22 06:49:44;;;;;;;15.33;9.93;;;3.00;99.90;;;;;;5074493;28;20993;-70
2023/11/22 06:52:10;;;;;;;12.27;8.00;;;2.90;99.90;;;;;;5074337;28;20460;-70
2023/11/22 06:54:36;;;;;;;9.93;8.23;;;2.90;99.90;;;;;;5074168;28;20166;-69
2023/11/22 06:57:02;;;;;;;17.80;9.60;;;2.90;99.90;;;;;;5074281;28;20159;-69
2023/11/22 06:59:28;;;;;;;10.77;8.30;;;2.90;99.90;;;;;;5074179;28;20424;-70
2023/11/22 07:01:55;;;;;;;17.10;10.00;;;2.90;99.90;;;;;;5056167;28;20420;-69
2023/11/22 07:04:22;;;;;;;15.77;9.33;;;2.90;99.90;;;;;;5056338;28;20436;-70
2023/11/22 07:06:48;;;;;;;15.50;10.00;;;2.90;99.90;;;;;;5074151;28;20822;-70
2023/11/22 07:09:14;;;;;;;13.10;8.00;;;2.90;99.90;;;;;;5074177;28;20972;-69
2023/11/22 07:11:40;;;;;;;16.77;10.13;;;2.90;99.90;;;;;;5074042;28;20444;-70
2023/11/22 07:14:05;;;;;;;14.90;9.53;;;2.90;99.90;;;;;;5074174;28;20799;-70
2023/11/22 07:16:34;;;;;;;14.20;9.57;;;2.90;99.90;;;;;;5074311;28;20175;-69
2023/11/22 07:19:02;;;;;;;18.23;9.30;;;2.90;99.90;;;;;;5074033;28;20192;-70
2023/11/22 07:21:31;;;;;;;14.47;8.73;;;2.90;99.90;;;;;;5074036;28;20409;-70
2023/11/22 07:23:58;;;;;;;15.30;9.03;;;2.90;99.90;;;;;;5073962;28;20926;-70
2023/11/22 07:26:26;;;;;;;13.27;8.53;;;3.00;99.90;;;;;;5073751;28;20415;-70
2023/11/22 07:28:52;;;;;;;10.33;6.70;;;3.00;99.90;;;;;;5073244;28;20531;-70
2023/11/22 07:31:17;;;;;;;13.87;8.90;;;3.10;99.90;;;;;;5073678;28;20981;-70
2023/11/22 07:33:43;;;;;;;16.33;9.00;;;3.10;99.90;;;;;;5073754;28;20215;-70
2023/11/22 07:36:09;;;;;;;15.10;9.13;;;3.10;99.90;;;;;;5073473;28;20174;-70
2023/11/22 07:38:35;;;;;;;15.07;9.83;;;3.20;99.90;;;;;;5073710;28;20166;-70
2023/11/22 07:41:00;;;;;;;19.00;9.70;;;3.20;99.90;;;;;;5073628;28;20397;-70
2023/11/22 07:43:26;;;;;;;22.23;10.07;;;3.30;99.90;;;;;;5073547;28;20169;-70
2023/11/22 07:45:52;;;;;;;13.70;8.73;;;3.30;99.90;;;;;;5073035;28;20198;-69
2023/11/22 07:48:17;;;;;;;17.13;10.50;;;3.40;99.90;;;;;;5072435;28;21000;-70
2023/11/22 07:50:43;;;;;;;15.00;9.53;;;3.50;99.90;;;;;;5073208;28;20182;-70
2023/11/22 07:53:11;;;;;;;18.77;10.23;;;3.70;99.90;;;;;;5073220;28;20202;-69
2023/11/22 07:55:37;;;;;;;18.60;10.57;;;4.20;99.90;;;;;;5073286;28;20408;-70
2023/11/22 07:58:03;;;;;;;23.23;13.03;;;5.80;99.90;;;;;;5073399;28;20774;-70
2023/11/22 08:00:29;;;;;;;25.43;14.80;;;7.60;99.90;;;;;;5073100;28;20500;-70
2023/11/22 08:02:55;;;;;;;23.27;14.40;;;9.50;99.90;;;;;;5073357;28;20571;-70
2023/11/22 08:05:23;;;;;;;23.63;15.90;;;11.40;99.90;;;;;;5072825;28;20404;-71
2023/11/22 08:07:49;;;;;;;20.60;14.40;;;13.30;99.90;;;;;;5072947;28;20666;-70
2023/11/22 08:10:18;;;;;;;15.80;12.13;;;15.20;99.90;;;;;;5073010;28;20444;-71
2023/11/22 08:12:46;;;;;;;11.67;9.30;;;17.00;99.90;;;;;;5055140;28;20681;-71
2023/11/22 08:15:12;;;;;;;9.13;7.43;;;18.50;99.90;;;;;;5072883;28;20396;-70
2023/11/22 08:17:42;;;;;;;7.90;7.10;;;19.90;99.90;;;;;;5072969;28;20491;-71
2023/11/22 08:20:13;;;;;;;8.53;6.70;;;21.10;99.90;;;;;;5072749;28;20919;-69
2023/11/22 08:22:39;;;;;;;5.80;5.30;;;22.20;99.90;;;;;;5072864;28;20404;-68
2023/11/22 08:25:08;;;;;;;6.37;5.73;;;22.60;88.30;;;;;;5072635;28;20914;-69
2023/11/22 08:27:33;;;;;;;6.03;5.20;;;22.80;74.30;;;;;;5072666;28;20454;-69
2023/11/22 08:30:01;;;;;;;6.70;4.90;;;23.20;62.40;;;;;;5072578;28;20420;-68
2023/11/22 08:32:30;;;;;;;5.53;5.03;;;24.00;58.40;;;;;;5072542;28;20198;-69
2023/11/22 08:34:56;;;;;;;4.53;4.23;;;24.80;53.90;;;;;;5072380;28;20400;-69
2023/11/22 08:37:22;;;;;;;5.80;5.30;;;25.60;51.60;;;;;;5072445;28;20937;-69
2023/11/22 08:39:48;;;;;;;5.93;5.00;;;25.90;48.90;;;;;;5072244;28;20186;-69
2023/11/22 08:42:14;;;;;;;5.40;4.90;;;25.80;47.10;;;;;;5072457;28;20165;-69
2023/11/22 08:44:39;;;;;;;5.53;5.07;;;25.70;46.00;;;;;;5054584;28;20421;-69
2023/11/22 08:47:05;;;;;;;6.50;4.93;;;26.00;45.00;;;;;;5072208;28;20174;-69
2023/11/22 08:49:30;;;;;;;6.63;6.03;;;26.20;43.60;;;;;;5072237;28;20189;-69
2023/11/22 08:51:56;;;;;;;4.70;4.30;;;26.10;42.10;;;;;;5072023;28;20201;-69
2023/11/22 08:54:22;;;;;;;5.50;5.00;;;25.70;41.60;;;;;;5072263;28;20178;-69
2023/11/22 08:56:48;;;;;;;5.90;5.40;;;25.60;41.20;;;;;;5072011;28;20503;-69
2023/11/22 08:59:14;;;;;;;4.63;4.27;;;25.60;40.30;;;;;;5072082;28;20866;-69
2023/11/22 09:01:40;;;;;;;5.87;5.37;;;25.40;40.00;;;;;;5072098;28;20170;-69
2023/11/22 09:04:08;;;;;;;7.33;5.83;;;24.90;39.80;;;;;;5072294;28;20461;-68
2023/11/22 09:06:34;;;;;;;4.20;3.80;;;24.50;39.80;;;;;;5072052;28;20408;-69
2023/11/22 09:09:00;;;;;;;5.50;4.97;;;24.20;40.10;;;;;;5071976;28;20467;-69
2023/11/22 09:11:26;;;;;;;4.70;4.30;;;24.30;41.50;;;;;;5071866;28;20501;-69
2023/11/22 09:13:53;;;;;;;6.80;5.40;;;25.00;41.50;;;;;;5072051;28;20792;-69
2023/11/22 09:16:22;;;;;;;4.80;4.20;;;25.70;40.60;;;;;;5071910;28;20253;-69
2023/11/22 09:18:48;;;;;;;4.83;4.43;;;25.80;39.40;;;;;;5072001;28;20392;-70
2023/11/22 09:21:13;;;;;;;4.73;4.20;;;26.00;38.80;;;;;;5071955;28;20400;-69
2023/11/22 09:23:39;;;;;;;5.50;4.80;;;26.70;38.50;;;;;;5071817;28;20919;-69
2023/11/22 09:26:05;;;;;;;5.03;4.40;;;27.60;38.10;;;;;;5071672;28;20193;-68
2023/11/22 09:28:31;;;;;;;4.30;3.90;;;28.30;37.00;;;;;;5071914;28;20166;-69
2023/11/22 09:31:05;;;;;;;4.80;4.40;;;28.80;36.10;;;;;;5071435;28;20200;-69
2023/11/22 09:33:31;;;;;;;5.50;5.10;;;29.10;34.80;;;;;;5071885;28;20480;-69
2023/11/22 09:35:58;;;;;;;5.47;5.07;;;29.40;34.50;;;;;;5071606;28;20396;-69
2023/11/22 09:38:24;;;;;;;5.60;5.20;;;29.50;34.20;;;;;;5071754;28;20431;-69
2023/11/22 09:40:50;;;;;;;6.00;5.50;;;29.40;33.40;;;;;;5071588;28;20840;-69
2023/11/22 09:43:17;;;;;;;7.70;6.07;;;28.80;32.60;;;;;;5071764;28;20419;-69
2023/11/22 09:45:50;;;;;;;5.50;5.00;;;28.00;32.50;;;;;;5071392;28;20419;-70
2023/11/22 09:48:22;;;;;;;5.07;4.73;;;27.20;33.10;;;;;;5071395;28;20903;-69
2023/11/22 09:51:09;;;;;;;6.60;6.00;;;26.60;33.50;;;;;;5070953;28;20432;-69
2023/11/22 09:53:40;;;;;;;4.83;4.43;;;26.10;34.10;;;;;;5071455;28;20498;-68
2023/11/22 09:56:07;;;;;;;5.20;4.80;;;25.80;34.40;;;;;;5071353;28;20405;-69
2023/11/22 09:58:34;;;;;;;5.77;5.17;;;25.60;34.50;;;;;;5071492;28;20437;-69
2023/11/22 10:01:00;;;;;;;5.20;4.70;;;25.60;34.60;;;;;;5071880;28;20396;-68
2023/11/22 10:03:30;;;;;;;6.40;5.90;;;25.70;34.70;;;;;;5071315;28;20938;-68
2023/11/22 10:05:58;;;;;;;5.03;4.63;;;25.90;34.90;;;;;;5071565;28;20970;-69
2023/11/22 10:08:27;;;;;;;4.57;4.27;;;26.20;34.80;;;;;;5071400;28;20491;-69
2023/11/22 10:10:54;;;;;;;3.70;3.50;;;26.40;34.50;;;;;;5072076;28;20681;-69
2023/11/22 10:13:20;;;;;;;5.47;4.97;;;26.30;34.00;;;;;;5075195;28;20452;-69
2023/11/22 10:15:49;;;;;;;4.80;4.50;;;26.10;33.70;;;;;;5057015;28;20461;-69
2023/11/22 10:18:17;;;;;;;5.67;4.70;;;25.70;33.30;;;;;;5075197;28;20511;-69
2023/11/22 10:20:46;;;;;;;4.83;4.43;;;25.30;33.40;;;;;;5074940;28;20467;-69
2023/11/22 10:23:16;;;;;;;4.13;3.73;;;25.00;33.60;;;;;;5057090;28;20427;-69
2023/11/22 10:25:49;;;;;;;4.37;4.07;;;24.70;33.60;;;;;;5074821;28;20408;-68
2023/11/22 10:28:27;;;;;;;3.60;3.40;;;24.50;33.50;;;;;;5075302;28;20415;-69
2023/11/22 10:30:53;;;;;;;4.00;3.70;;;24.20;33.50;;;;;;5056968;28;20436;-69
2023/11/22 10:33:22;;;;;;;3.50;3.30;;;24.10;33.50;;;;;;5075145;28;20448;-68
2023/11/22 10:35:49;;;;;;;4.10;3.70;;;24.00;33.30;;;;;;5056830;28;20249;-68
2023/11/22 10:38:18;;;;;;;3.23;3.00;;;23.90;33.70;;;;;;5074900;28;20412;-68
2023/11/22 10:40:45;;;;;;;4.13;3.73;;;23.80;33.70;;;;;;5074534;28;20943;-68
2023/11/22 10:43:11;;;;;;;3.63;3.43;;;23.70;33.60;;;;;;5074697;28;20903;-69
2023/11/22 10:45:38;;;;;;;3.50;3.30;;;23.60;33.60;;;;;;5074499;28;20408;-68
2023/11/22 10:48:05;;;;;;;3.10;2.90;;;23.50;33.50;;;;;;5074656;28;20412;-68
2023/11/22 10:50:30;;;;;;;3.57;3.27;;;23.40;33.10;;;;;;5074624;28;20868;-68
2023/11/22 10:53:00;;;;;;;3.40;3.10;;;23.10;32.60;;;;;;5074362;28;20543;-68
2023/11/22 10:55:27;;;;;;;3.80;3.50;;;22.90;32.30;;;;;;5074354;28;20388;-68
2023/11/22 10:57:56;;;;;;;3.60;3.30;;;22.70;32.50;;;;;;5074531;28;20474;-68
2023/11/22 11:00:23;;;;;;;3.43;3.13;;;22.90;33.20;;;;;;5074366;28;20416;-68
2023/11/22 11:02:54;;;;;;;2.90;2.70;;;23.40;34.00;;;;;;5074465;28;20403;-69
2023/11/22 11:05:28;;;;;;;10.17;9.07;;;23.80;33.20;;;;;;5075668;28;20397;-69
2023/11/22 11:08:21;;;;;;;6.03;5.50;;;24.40;32.90;;;;;;5074206;28;20399;-69
2023/11/22 11:10:49;;;;;;;4.80;4.40;;;25.00;32.50;;;;;;5070074;28;20429;-68
2023/11/22 11:13:14;;;;;;;3.90;3.57;;;25.40;32.70;;;;;;5074107;28;20486;-69
2023/11/22 11:15:47;;;;;;;3.63;3.40;;;26.00;32.80;;;;;;5073919;28;20404;-69
2023/11/22 11:18:15;;;;;;;4.90;4.50;;;26.90;32.70;;;;;;5074100;28;20250;-69
2023/11/22 11:20:51;;;;;;;3.83;3.53;;;28.00;32.20;;;;;;5073890;28;20424;-69
2023/11/22 11:23:19;;;;;;;5.33;3.90;;;29.20;31.20;;;;;;5072642;28;20864;-69
2023/11/22 11:25:47;;;;;;;3.90;3.60;;;30.10;30.20;;;;;;5073767;28;20400;-69
2023/11/22 11:28:14;;;;;;;3.63;3.40;;;30.70;29.10;;;;;;5073961;28;20458;-69
2023/11/22 11:30:50;;;;;;;4.33;3.83;;;30.80;27.90;;;;;;5073680;28;20793;-69
2023/11/22 11:33:26;;;;;;;3.80;3.50;;;30.60;27.80;;;;;;5073730;28;20476;-69
2023/11/22 11:35:52;;;;;;;4.27;3.87;;;30.00;27.50;;;;;;5073590;28;20405;-69
2023/11/22 11:38:21;;;;;;;3.50;3.20;;;29.50;27.30;;;;;;5073460;28;20401;-69
2023/11/22 11:40:48;;;;;;;3.47;3.27;;;29.00;27.40;;;;;;5073571;28;20463;-69
2023/11/22 11:43:13;;;;;;;4.10;3.80;;;28.40;27.40;;;;;;5073465;28;20938;-69
2023/11/22 11:45:45;;;;;;;4.63;3.90;;;27.70;27.70;;;;;;5073487;28;20413;-69
2023/11/22 11:48:15;;;;;;;3.63;3.30;;;27.30;28.00;;;;;;5073663;28;20216;-69
2023/11/22 11:50:41;;;;;;;3.80;3.50;;;27.20;28.50;;;;;;5055822;28;20947;-68
2023/11/22 11:53:07;;;;;;;4.13;3.83;;;27.10;29.70;;;;;;5073250;28;20467;-68
2023/11/22 11:55:34;;;;;;;3.20;2.90;;;26.80;30.00;;;;;;5073262;28;20408;-69
2023/11/22 11:58:05;;;;;;;3.10;2.90;;;26.70;30.40;;;;;;5073395;28;20169;-69
2023/11/22 12:00:30;;;;;;;4.10;3.80;;;26.80;30.30;;;;;;5072984;28;20467;-68
2023/11/22 12:02:56;;;;;;;3.83;3.53;;;27.10;30.40;;;;;;5073207;28;20401;-68
2023/11/22 12:05:22;;;;;;;3.70;3.50;;;27.20;30.20;;;;;;5073040;28;20176;-68
2023/11/22 12:07:48;;;;;;;3.50;3.20;;;27.30;29.60;;;;;;5073201;28;20189;-69
2023/11/22 12:10:14;;;;;;;3.97;3.30;;;27.20;29.50;;;;;;5072980;28;20557;-69
2023/11/22 12:12:39;;;;;;;3.23;3.03;;;27.10;29.50;;;;;;5072925;28;20448;-68
2023/11/22 12:15:09;;;;;;;3.07;2.87;;;27.10;29.70;;;;;;5055062;28;20235;-69
2023/11/22 12:17:36;;;;;;;3.50;3.30;;;27.00;29.30;;;;;;5073063;28;20541;-69
2023/11/22 12:20:17;;;;;;;3.67;3.40;;;26.70;29.40;;;;;;5072812;28;20424;-69
2023/11/22 12:22:43;;;;;;;3.90;3.60;;;26.20;29.30;;;;;;5072750;28;20413;-68
2023/11/22 12:25:11;;;;;;;4.93;3.40;;;25.40;28.90;;;;;;5072712;28;20496;-68
2023/11/22 12:27:45;;;;;;;3.03;2.83;;;24.10;26.50;;;;;;5072914;28;20733;-68
2023/11/22 12:30:31;;;;;;;3.73;3.43;;;23.50;27.70;;;;;;5072701;28;20482;-71
2023/11/22 12:33:04;;;;;;;2.83;2.67;;;22.80;27.40;;;;;;5072657;28;21041;-68
2023/11/22 12:35:31;;;;;;;2.80;2.60;;;22.20;28.00;;;;;;5071986;28;20766;-68
2023/11/22 12:37:58;;;;;;;3.87;2.40;;;21.30;27.60;;;;;;5072885;28;20411;-68
2023/11/22 12:40:26;;;;;;;3.10;2.90;;;20.40;27.10;;;;;;5072350;28;20416;-68
2023/11/22 12:42:53;;;;;;;3.20;2.90;;;20.40;28.30;;;;;;5072475;28;20416;-68